sensor_id;sensor_type;location;lat;lon;timestamp;temperature;humidity
5846;DHT22;2949;50.778;7.094;2023-07-29T00:00:46;19.30;99.90
5846;DHT22;2949;50.778;7.094;2023-07-29T00:03:12;19.30;99.90
5846;DHT22;2949;50.778;7.094;2023-07-29T00:05:37;19.20;99.90
5846;DHT22;2949;50.778;7.094;2023-07-29T00:08:03;19.20;99.90
5846;DHT22;2949;50.778;7.094;2023-07-29T00:10:31;19.20;99.90
5846;DHT22;2949;50.778;7.094;2023-07-29T00:12:57;19.20;99.90
5846;DHT22;2949;50.778;7.094;2023-07-29T00:15:23;19.20;99.90
5846;DHT22;2949;50.778;7.094;2023-07-29T00:17:48;19.20;99.90
5846;DHT22;2949;50.778;7.094;2023-07-29T00:20:14;19.20;99.90
5846;DHT22;2949;50.778;7.094;2023-07-29T00:22:39;19.20;99.90
5846;DHT22;2949;50.778;7.094;2023-07-29T00:25:05;19.20;99.90
5846;DHT22;2949;50.778;7.094;2023-07-29T00:27:31;19.20;99.90
5846;DHT22;2949;50.778;7.094;2023-07-29T00:29:56;19.20;99.90
5846;DHT22;2949;50.778;7.094;2023-07-29T00:32:22;19.20;99.90
5846;DHT22;2949;50.778;7.094;2023-07-29T00:34:47;19.20;99.90
5846;DHT22;2949;50.778;7.094;2023-07-29T00:37:13;19.10;99.90
5846;DHT22;2949;50.778;7.094;2023-07-29T00:39:38;19.20;99.90
5846;DHT22;2949;50.778;7.094;2023-07-29T00:42:05;19.10;99.90
5846;DHT22;2949;50.778;7.094;2023-07-29T00:44:30;19.20;99.90
5846;DHT22;2949;50.778;7.094;2023-07-29T00:47:01;19.20;99.90
5846;DHT22;2949;50.778;7.094;2023-07-29T00:49:28;19.10;99.90
5846;DHT22;2949;50.778;7.094;2023-07-29T00:51:53;19.10;99.90
5846;DHT22;2949;50.778;7.094;2023-07-29T00:54:19;19.10;99.90
5846;DHT22;2949;50.778;7.094;2023-07-29T00:56:45;19.00;99.90
5846;DHT22;2949;50.778;7.094;2023-07-29T00:59:10;18.90;99.90
5846;DHT22;2949;50.778;7.094;2023-07-29T01:01:36;18.90;99.90
5846;DHT22;2949;50.778;7.094;2023-07-29T01:04:02;18.90;99.90
5846;DHT22;2949;50.778;7.094;2023-07-29T01:07:01;18.90;99.90
5846;DHT22;2949;50.778;7.094;2023-07-29T01:09:42;18.90;99.90
5846;DHT22;2949;50.778;7.094;2023-07-29T01:15:14;19.00;99.90
5846;DHT22;2949;50.778;7.094;2023-07-29T01:18:23;19.00;99.90
5846;DHT22;2949;50.778;7.094;2023-07-29T01:20:53;19.00;99.90
5846;DHT22;2949;50.778;7.094;2023-07-29T01:23:46;19.00;99.90
5846;DHT22;2949;50.778;7.094;2023-07-29T01:26:11;19.00;99.90
5846;DHT22;2949;50.778;7.094;2023-07-29T01:28:37;19.00;99.90
5846;DHT22;2949;50.778;7.094;2023-07-29T01:31:30;19.00;99.90
5846;DHT22;2949;50.778;7.094;2023-07-29T01:33:59;19.00;99.90
5846;DHT22;2949;50.778;7.094;2023-07-29T01:36:28;19.00;99.90
5846;DHT22;2949;50.778;7.094;2023-07-29T01:38:56;19.00;99.90
5846;DHT22;2949;50.778;7.094;2023-07-29T01:41:24;19.00;99.90
5846;DHT22;2949;50.778;7.094;2023-07-29T01:43:50;19.00;99.90
5846;DHT22;2949;50.778;7.094;2023-07-29T01:46:16;19.00;99.90
5846;DHT22;2949;50.778;7.094;2023-07-29T01:48:42;19.00;99.90
5846;DHT22;2949;50.778;7.094;2023-07-29T01:51:07;19.00;99.90
5846;DHT22;2949;50.778;7.094;2023-07-29T01:53:34;19.00;99.90
5846;DHT22;2949;50.778;7.094;2023-07-29T01:56:00;19.10;99.90
5846;DHT22;2949;50.778;7.094;2023-07-29T01:58:26;19.10;99.90
5846;DHT22;2949;50.778;7.094;2023-07-29T02:00:52;19.20;99.90
5846;DHT22;2949;50.778;7.094;2023-07-29T02:03:17;19.20;99.90
5846;DHT22;2949;50.778;7.094;2023-07-29T02:05:43;19.20;99.90
5846;DHT22;2949;50.778;7.094;2023-07-29T02:08:09;19.20;99.90
5846;DHT22;2949;50.778;7.094;2023-07-29T02:10:35;19.20;99.90
5846;DHT22;2949;50.778;7.094;2023-07-29T02:13:01;19.20;99.90
5846;DHT22;2949;50.778;7.094;2023-07-29T02:15:26;19.10;99.90
5846;DHT22;2949;50.778;7.094;2023-07-29T02:17:52;19.10;99.90
5846;DHT22;2949;50.778;7.094;2023-07-29T02:20:17;19.10;99.90
5846;DHT22;2949;50.778;7.094;2023-07-29T02:22:43;19.10;99.90
5846;DHT22;2949;50.778;7.094;2023-07-29T02:25:08;19.10;99.90
5846;DHT22;2949;50.778;7.094;2023-07-29T02:27:35;19.20;99.90
5846;DHT22;2949;50.778;7.094;2023-07-29T02:30:01;19.10;99.90
5846;DHT22;2949;50.778;7.094;2023-07-29T02:32:27;19.10;99.90
5846;DHT22;2949;50.778;7.094;2023-07-29T02:34:52;19.10;99.90
5846;DHT22;2949;50.778;7.094;2023-07-29T02:37:18;19.10;99.90
5846;DHT22;2949;50.778;7.094;2023-07-29T02:39:44;19.00;99.90
5846;DHT22;2949;50.778;7.094;2023-07-29T02:42:10;19.00;99.90
5846;DHT22;2949;50.778;7.094;2023-07-29T02:44:35;18.90;99.90
5846;DHT22;2949;50.778;7.094;2023-07-29T02:47:01;18.90;99.90
5846;DHT22;2949;50.778;7.094;2023-07-29T02:49:26;18.80;99.90
5846;DHT22;2949;50.778;7.094;2023-07-29T02:51:52;18.70;99.90
5846;DHT22;2949;50.778;7.094;2023-07-29T02:54:17;18.80;99.90
5846;DHT22;2949;50.778;7.094;2023-07-29T02:56:43;18.80;99.90
5846;DHT22;2949;50.778;7.094;2023-07-29T02:59:08;18.80;99.90
5846;DHT22;2949;50.778;7.094;2023-07-29T03:01:34;18.80;99.90
5846;DHT22;2949;50.778;7.094;2023-07-29T03:03:59;18.80;99.90
5846;DHT22;2949;50.778;7.094;2023-07-29T03:06:25;18.80;99.90
5846;DHT22;2949;50.778;7.094;2023-07-29T03:08:50;18.80;99.90
5846;DHT22;2949;50.778;7.094;2023-07-29T03:11:16;18.70;99.90
5846;DHT22;2949;50.778;7.094;2023-07-29T03:13:43;18.60;99.90
5846;DHT22;2949;50.778;7.094;2023-07-29T03:16:10;18.60;99.90
5846;DHT22;2949;50.778;7.094;2023-07-29T03:18:36;18.50;99.90
5846;DHT22;2949;50.778;7.094;2023-07-29T03:21:02;18.40;99.90
5846;DHT22;2949;50.778;7.094;2023-07-29T03:23:29;18.30;99.90
5846;DHT22;2949;50.778;7.094;2023-07-29T03:25:55;18.30;99.90
5846;DHT22;2949;50.778;7.094;2023-07-29T03:28:24;18.20;99.90
5846;DHT22;2949;50.778;7.094;2023-07-29T03:30:50;18.20;99.90
5846;DHT22;2949;50.778;7.094;2023-07-29T03:33:16;18.20;99.90
5846;DHT22;2949;50.778;7.094;2023-07-29T03:35:41;18.10;99.90
5846;DHT22;2949;50.778;7.094;2023-07-29T03:38:10;18.10;99.90
5846;DHT22;2949;50.778;7.094;2023-07-29T03:40:36;18.10;99.90
5846;DHT22;2949;50.778;7.094;2023-07-29T03:43:01;18.10;99.90
5846;DHT22;2949;50.778;7.094;2023-07-29T03:45:27;18.10;99.90
5846;DHT22;2949;50.778;7.094;2023-07-29T03:47:52;18.10;99.90
5846;DHT22;2949;50.778;7.094;2023-07-29T03:50:18;18.10;99.90
5846;DHT22;2949;50.778;7.094;2023-07-29T03:52:43;18.10;99.90
5846;DHT22;2949;50.778;7.094;2023-07-29T03:55:09;18.10;99.90
5846;DHT22;2949;50.778;7.094;2023-07-29T03:57:34;18.00;99.90
5846;DHT22;2949;50.778;7.094;2023-07-29T04:00:00;18.00;99.90
5846;DHT22;2949;50.778;7.094;2023-07-29T04:02:25;18.00;99.90
5846;DHT22;2949;50.778;7.094;2023-07-29T04:04:51;18.00;99.90
5846;DHT22;2949;50.778;7.094;2023-07-29T04:07:17;18.00;99.90
5846;DHT22;2949;50.778;7.094;2023-07-29T04:09:42;18.00;99.90
5846;DHT22;2949;50.778;7.094;2023-07-29T04:12:09;17.90;99.90
5846;DHT22;2949;50.778;7.094;2023-07-29T04:14:35;17.90;99.90
5846;DHT22;2949;50.778;7.094;2023-07-29T04:17:00;17.90;99.90
5846;DHT22;2949;50.778;7.094;2023-07-29T04:19:26;17.90;99.90
5846;DHT22;2949;50.778;7.094;2023-07-29T04:21:51;17.90;99.90
5846;DHT22;2949;50.778;7.094;2023-07-29T04:24:17;17.90;99.90
5846;DHT22;2949;50.778;7.094;2023-07-29T04:26:43;17.90;99.90
5846;DHT22;2949;50.778;7.094;2023-07-29T04:29:09;17.90;99.90
5846;DHT22;2949;50.778;7.094;2023-07-29T04:31:34;17.90;99.90
5846;DHT22;2949;50.778;7.094;2023-07-29T04:33:59;17.90;99.90
5846;DHT22;2949;50.778;7.094;2023-07-29T04:36:25;18.00;99.90
5846;DHT22;2949;50.778;7.094;2023-07-29T04:38:50;18.00;99.90
5846;DHT22;2949;50.778;7.094;2023-07-29T04:41:16;17.90;99.90
5846;DHT22;2949;50.778;7.094;2023-07-29T04:43:41;18.00;99.90
5846;DHT22;2949;50.778;7.094;2023-07-29T04:46:07;18.00;99.90
5846;DHT22;2949;50.778;7.094;2023-07-29T04:48:34;18.00;99.90
5846;DHT22;2949;50.778;7.094;2023-07-29T04:50:59;18.00;99.90
5846;DHT22;2949;50.778;7.094;2023-07-29T04:53:25;18.10;99.90
5846;DHT22;2949;50.778;7.094;2023-07-29T04:55:50;18.10;99.90
5846;DHT22;2949;50.778;7.094;2023-07-29T04:58:16;18.10;99.90
5846;DHT22;2949;50.778;7.094;2023-07-29T05:00:41;18.20;99.90
5846;DHT22;2949;50.778;7.094;2023-07-29T05:03:07;18.20;99.90
5846;DHT22;2949;50.778;7.094;2023-07-29T05:05:32;18.20;99.90
5846;DHT22;2949;50.778;7.094;2023-07-29T05:07:58;18.30;99.90
5846;DHT22;2949;50.778;7.094;2023-07-29T05:10:23;18.30;99.90
5846;DHT22;2949;50.778;7.094;2023-07-29T05:12:49;18.30;99.90
5846;DHT22;2949;50.778;7.094;2023-07-29T05:15:14;18.30;99.90
5846;DHT22;2949;50.778;7.094;2023-07-29T05:17:40;18.30;99.90
5846;DHT22;2949;50.778;7.094;2023-07-29T05:20:06;18.30;99.90
5846;DHT22;2949;50.778;7.094;2023-07-29T05:22:32;18.30;99.90
5846;DHT22;2949;50.778;7.094;2023-07-29T05:24:57;18.40;99.90
5846;DHT22;2949;50.778;7.094;2023-07-29T05:27:23;18.40;99.90
5846;DHT22;2949;50.778;7.094;2023-07-29T05:29:48;18.40;99.90
5846;DHT22;2949;50.778;7.094;2023-07-29T05:32:14;18.50;99.90
5846;DHT22;2949;50.778;7.094;2023-07-29T05:34:39;18.70;99.90
5846;DHT22;2949;50.778;7.094;2023-07-29T05:37:05;18.90;99.90
5846;DHT22;2949;50.778;7.094;2023-07-29T05:39:31;19.10;99.90
5846;DHT22;2949;50.778;7.094;2023-07-29T05:41:57;19.30;99.90
5846;DHT22;2949;50.778;7.094;2023-07-29T05:44:23;19.50;99.90
5846;DHT22;2949;50.778;7.094;2023-07-29T05:46:48;19.60;99.90
5846;DHT22;2949;50.778;7.094;2023-07-29T05:49:14;19.70;99.90
5846;DHT22;2949;50.778;7.094;2023-07-29T05:51:39;19.60;99.90
5846;DHT22;2949;50.778;7.094;2023-07-29T05:54:05;19.60;99.90
5846;DHT22;2949;50.778;7.094;2023-07-29T05:56:30;19.50;99.90
5846;DHT22;2949;50.778;7.094;2023-07-29T05:58:57;19.30;99.90
5846;DHT22;2949;50.778;7.094;2023-07-29T06:01:22;19.30;99.90
5846;DHT22;2949;50.778;7.094;2023-07-29T06:03:48;19.20;99.90
5846;DHT22;2949;50.778;7.094;2023-07-29T06:06:13;19.30;99.90
5846;DHT22;2949;50.778;7.094;2023-07-29T06:08:39;19.40;99.90
5846;DHT22;2949;50.778;7.094;2023-07-29T06:11:04;19.40;99.90
5846;DHT22;2949;50.778;7.094;2023-07-29T06:13:32;19.50;99.90
5846;DHT22;2949;50.778;7.094;2023-07-29T06:15:57;19.50;99.90
5846;DHT22;2949;50.778;7.094;2023-07-29T06:18:24;19.50;99.90
5846;DHT22;2949;50.778;7.094;2023-07-29T06:20:50;19.50;99.90
5846;DHT22;2949;50.778;7.094;2023-07-29T06:23:15;19.50;99.90
5846;DHT22;2949;50.778;7.094;2023-07-29T06:25:41;19.50;99.90
5846;DHT22;2949;50.778;7.094;2023-07-29T06:28:06;19.60;99.90
5846;DHT22;2949;50.778;7.094;2023-07-29T06:30:32;19.60;99.90
5846;DHT22;2949;50.778;7.094;2023-07-29T06:32:57;19.70;99.90
5846;DHT22;2949;50.778;7.094;2023-07-29T06:35:23;19.80;99.90
5846;DHT22;2949;50.778;7.094;2023-07-29T06:37:49;19.80;99.90
5846;DHT22;2949;50.778;7.094;2023-07-29T06:40:14;19.90;99.90
5846;DHT22;2949;50.778;7.094;2023-07-29T06:42:40;20.00;99.90
5846;DHT22;2949;50.778;7.094;2023-07-29T06:45:06;20.10;99.90
5846;DHT22;2949;50.778;7.094;2023-07-29T06:47:32;20.00;99.90
5846;DHT22;2949;50.778;7.094;2023-07-29T06:49:58;19.90;99.90
5846;DHT22;2949;50.778;7.094;2023-07-29T06:52:23;19.80;99.90
5846;DHT22;2949;50.778;7.094;2023-07-29T06:54:48;19.90;99.90
5846;DHT22;2949;50.778;7.094;2023-07-29T06:57:14;20.00;99.90
5846;DHT22;2949;50.778;7.094;2023-07-29T06:59:39;20.30;99.90
5846;DHT22;2949;50.778;7.094;2023-07-29T07:02:06;20.70;99.90
5846;DHT22;2949;50.778;7.094;2023-07-29T07:04:32;21.30;99.90
5846;DHT22;2949;50.778;7.094;2023-07-29T07:06:57;21.90;99.90
5846;DHT22;2949;50.778;7.094;2023-07-29T07:09:23;22.10;99.90
5846;DHT22;2949;50.778;7.094;2023-07-29T07:11:48;21.90;99.90
5846;DHT22;2949;50.778;7.094;2023-07-29T07:14:14;21.80;99.90
5846;DHT22;2949;50.778;7.094;2023-07-29T07:16:40;21.90;99.90
5846;DHT22;2949;50.778;7.094;2023-07-29T07:19:05;21.80;99.90
5846;DHT22;2949;50.778;7.094;2023-07-29T07:21:31;21.80;99.90
5846;DHT22;2949;50.778;7.094;2023-07-29T07:23:58;21.70;99.90
5846;DHT22;2949;50.778;7.094;2023-07-29T07:26:23;21.50;99.90
5846;DHT22;2949;50.778;7.094;2023-07-29T07:28:49;21.40;99.90
5846;DHT22;2949;50.778;7.094;2023-07-29T07:31:14;21.40;99.90
5846;DHT22;2949;50.778;7.094;2023-07-29T07:33:41;21.40;99.90
5846;DHT22;2949;50.778;7.094;2023-07-29T07:36:07;21.40;99.90
5846;DHT22;2949;50.778;7.094;2023-07-29T07:38:32;21.40;99.90
5846;DHT22;2949;50.778;7.094;2023-07-29T07:40:58;21.40;99.90
5846;DHT22;2949;50.778;7.094;2023-07-29T07:43:24;21.40;99.90
5846;DHT22;2949;50.778;7.094;2023-07-29T07:45:50;21.50;99.90
5846;DHT22;2949;50.778;7.094;2023-07-29T07:48:16;21.70;99.90
5846;DHT22;2949;50.778;7.094;2023-07-29T07:50:42;21.90;99.90
5846;DHT22;2949;50.778;7.094;2023-07-29T07:53:08;22.10;99.90
5846;DHT22;2949;50.778;7.094;2023-07-29T07:55:33;22.40;99.90
5846;DHT22;2949;50.778;7.094;2023-07-29T07:57:59;22.80;99.90
5846;DHT22;2949;50.778;7.094;2023-07-29T08:00:24;23.20;99.90
5846;DHT22;2949;50.778;7.094;2023-07-29T08:02:50;23.60;99.90
5846;DHT22;2949;50.778;7.094;2023-07-29T08:05:15;24.20;99.90
5846;DHT22;2949;50.778;7.094;2023-07-29T08:07:41;25.10;99.90
5846;DHT22;2949;50.778;7.094;2023-07-29T08:10:07;25.80;99.90
5846;DHT22;2949;50.778;7.094;2023-07-29T08:12:32;26.20;99.90
5846;DHT22;2949;50.778;7.094;2023-07-29T08:14:58;25.90;99.90
5846;DHT22;2949;50.778;7.094;2023-07-29T08:17:23;25.70;99.90
5846;DHT22;2949;50.778;7.094;2023-07-29T08:19:49;25.40;99.90
5846;DHT22;2949;50.778;7.094;2023-07-29T08:22:15;25.10;99.90
5846;DHT22;2949;50.778;7.094;2023-07-29T08:24:42;25.20;99.90
5846;DHT22;2949;50.778;7.094;2023-07-29T08:27:08;25.00;99.90
5846;DHT22;2949;50.778;7.094;2023-07-29T08:29:33;25.40;99.90
5846;DHT22;2949;50.778;7.094;2023-07-29T08:31:59;26.10;99.90
5846;DHT22;2949;50.778;7.094;2023-07-29T08:34:24;26.60;99.90
5846;DHT22;2949;50.778;7.094;2023-07-29T08:36:50;26.40;99.90
5846;DHT22;2949;50.778;7.094;2023-07-29T08:39:15;26.40;99.90
5846;DHT22;2949;50.778;7.094;2023-07-29T08:42:00;26.20;99.90
5846;DHT22;2949;50.778;7.094;2023-07-29T08:44:30;25.90;99.90
5846;DHT22;2949;50.778;7.094;2023-07-29T08:46:56;25.60;99.90
5846;DHT22;2949;50.778;7.094;2023-07-29T08:49:23;25.10;99.90
5846;DHT22;2949;50.778;7.094;2023-07-29T08:51:49;24.60;99.90
5846;DHT22;2949;50.778;7.094;2023-07-29T08:54:16;24.10;99.90
5846;DHT22;2949;50.778;7.094;2023-07-29T08:56:42;23.70;99.90
5846;DHT22;2949;50.778;7.094;2023-07-29T08:59:08;23.20;99.90
5846;DHT22;2949;50.778;7.094;2023-07-29T09:01:34;22.70;99.90
5846;DHT22;2949;50.778;7.094;2023-07-29T09:04:00;22.30;99.90
5846;DHT22;2949;50.778;7.094;2023-07-29T09:06:25;21.90;99.90
5846;DHT22;2949;50.778;7.094;2023-07-29T09:08:53;21.60;99.90
5846;DHT22;2949;50.778;7.094;2023-07-29T09:11:19;21.40;99.90
5846;DHT22;2949;50.778;7.094;2023-07-29T09:13:46;21.20;99.90
5846;DHT22;2949;50.778;7.094;2023-07-29T09:16:11;21.00;99.90
5846;DHT22;2949;50.778;7.094;2023-07-29T09:18:37;20.90;99.90
5846;DHT22;2949;50.778;7.094;2023-07-29T09:21:03;20.80;99.90
5846;DHT22;2949;50.778;7.094;2023-07-29T09:23:38;21.00;99.90
5846;DHT22;2949;50.778;7.094;2023-07-29T09:26:05;21.10;99.90
5846;DHT22;2949;50.778;7.094;2023-07-29T09:28:35;21.10;99.90
5846;DHT22;2949;50.778;7.094;2023-07-29T09:31:01;21.20;99.90
5846;DHT22;2949;50.778;7.094;2023-07-29T09:33:36;21.30;99.90
5846;DHT22;2949;50.778;7.094;2023-07-29T09:36:09;21.40;99.90
5846;DHT22;2949;50.778;7.094;2023-07-29T09:38:35;21.60;99.90
5846;DHT22;2949;50.778;7.094;2023-07-29T09:41:01;22.00;99.90
5846;DHT22;2949;50.778;7.094;2023-07-29T09:43:31;22.40;99.90
5846;DHT22;2949;50.778;7.094;2023-07-29T09:46:03;22.70;99.90
5846;DHT22;2949;50.778;7.094;2023-07-29T09:48:33;22.90;99.90
5846;DHT22;2949;50.778;7.094;2023-07-29T09:50:59;22.90;99.90
5846;DHT22;2949;50.778;7.094;2023-07-29T09:53:25;22.90;99.90
5846;DHT22;2949;50.778;7.094;2023-07-29T09:55:53;22.90;99.90
5846;DHT22;2949;50.778;7.094;2023-07-29T09:58:28;22.90;99.90
5846;DHT22;2949;50.778;7.094;2023-07-29T10:00:53;22.50;99.90
5846;DHT22;2949;50.778;7.094;2023-07-29T10:03:21;22.30;99.90
5846;DHT22;2949;50.778;7.094;2023-07-29T10:05:46;22.10;99.90
5846;DHT22;2949;50.778;7.094;2023-07-29T10:08:13;22.00;99.90
5846;DHT22;2949;50.778;7.094;2023-07-29T10:10:39;22.00;99.90
5846;DHT22;2949;50.778;7.094;2023-07-29T10:13:07;22.00;99.90
5846;DHT22;2949;50.778;7.094;2023-07-29T10:15:33;22.00;99.90
5846;DHT22;2949;50.778;7.094;2023-07-29T10:17:59;22.10;99.90
5846;DHT22;2949;50.778;7.094;2023-07-29T10:20:25;22.10;99.90
5846;DHT22;2949;50.778;7.094;2023-07-29T10:22:52;22.00;99.90
5846;DHT22;2949;50.778;7.094;2023-07-29T10:25:22;21.90;99.90
5846;DHT22;2949;50.778;7.094;2023-07-29T10:27:49;21.80;99.90
5846;DHT22;2949;50.778;7.094;2023-07-29T10:30:18;21.60;99.90
5846;DHT22;2949;50.778;7.094;2023-07-29T10:32:45;21.50;99.90
5846;DHT22;2949;50.778;7.094;2023-07-29T10:35:12;21.60;99.90
5846;DHT22;2949;50.778;7.094;2023-07-29T10:37:38;21.70;99.90
5846;DHT22;2949;50.778;7.094;2023-07-29T10:40:07;21.80;99.90
5846;DHT22;2949;50.778;7.094;2023-07-29T10:42:33;21.90;99.90
5846;DHT22;2949;50.778;7.094;2023-07-29T10:44:58;22.00;99.90
5846;DHT22;2949;50.778;7.094;2023-07-29T10:47:28;21.90;99.90
5846;DHT22;2949;50.778;7.094;2023-07-29T10:49:58;22.00;99.90
5846;DHT22;2949;50.778;7.094;2023-07-29T10:52:37;21.90;99.90
5846;DHT22;2949;50.778;7.094;2023-07-29T10:55:26;21.80;99.90
5846;DHT22;2949;50.778;7.094;2023-07-29T10:57:52;21.60;99.90
5846;DHT22;2949;50.778;7.094;2023-07-29T11:00:19;21.60;99.90
5846;DHT22;2949;50.778;7.094;2023-07-29T11:03:01;21.70;99.90
5846;DHT22;2949;50.778;7.094;2023-07-29T11:05:51;21.80;99.90
5846;DHT22;2949;50.778;7.094;2023-07-29T11:11:04;21.90;99.90
5846;DHT22;2949;50.778;7.094;2023-07-29T11:13:31;22.10;99.90
5846;DHT22;2949;50.778;7.094;2023-07-29T11:15:58;22.20;99.90
5846;DHT22;2949;50.778;7.094;2023-07-29T11:18:30;22.50;99.90
5846;DHT22;2949;50.778;7.094;2023-07-29T11:20:57;22.90;99.90
5846;DHT22;2949;50.778;7.094;2023-07-29T11:23:33;23.40;99.90
5846;DHT22;2949;50.778;7.094;2023-07-29T11:26:00;23.70;99.90
5846;DHT22;2949;50.778;7.094;2023-07-29T11:28:27;23.70;99.90
5846;DHT22;2949;50.778;7.094;2023-07-29T11:30:55;23.50;99.90
5846;DHT22;2949;50.778;7.094;2023-07-29T11:33:25;23.50;99.90
5846;DHT22;2949;50.778;7.094;2023-07-29T11:35:51;23.60;99.90
5846;DHT22;2949;50.778;7.094;2023-07-29T11:38:19;23.80;99.90
5846;DHT22;2949;50.778;7.094;2023-07-29T11:40:59;24.20;99.90
5846;DHT22;2949;50.778;7.094;2023-07-29T11:43:25;24.70;99.90
5846;DHT22;2949;50.778;7.094;2023-07-29T11:45:52;24.90;99.90
5846;DHT22;2949;50.778;7.094;2023-07-29T11:48:18;24.90;99.90
5846;DHT22;2949;50.778;7.094;2023-07-29T11:50:45;24.50;99.90
5846;DHT22;2949;50.778;7.094;2023-07-29T11:53:11;24.00;99.90
5846;DHT22;2949;50.778;7.094;2023-07-29T11:55:36;23.50;99.90
5846;DHT22;2949;50.778;7.094;2023-07-29T11:58:02;23.40;99.90
5846;DHT22;2949;50.778;7.094;2023-07-29T12:00:28;23.50;99.90
5846;DHT22;2949;50.778;7.094;2023-07-29T12:02:54;23.60;99.90
5846;DHT22;2949;50.778;7.094;2023-07-29T12:05:22;23.70;99.90
5846;DHT22;2949;50.778;7.094;2023-07-29T12:07:48;24.20;99.90
5846;DHT22;2949;50.778;7.094;2023-07-29T12:10:14;24.80;99.90
5846;DHT22;2949;50.778;7.094;2023-07-29T12:12:46;25.40;99.90
5846;DHT22;2949;50.778;7.094;2023-07-29T12:15:12;25.90;99.90
5846;DHT22;2949;50.778;7.094;2023-07-29T12:17:40;26.30;99.90
5846;DHT22;2949;50.778;7.094;2023-07-29T12:20:08;26.20;99.90
5846;DHT22;2949;50.778;7.094;2023-07-29T12:22:34;26.30;99.90
5846;DHT22;2949;50.778;7.094;2023-07-29T12:24:59;26.10;99.90
5846;DHT22;2949;50.778;7.094;2023-07-29T12:27:26;26.00;99.90
5846;DHT22;2949;50.778;7.094;2023-07-29T12:29:52;25.90;99.90
5846;DHT22;2949;50.778;7.094;2023-07-29T12:32:18;25.80;99.90
5846;DHT22;2949;50.778;7.094;2023-07-29T12:34:44;25.40;99.90
5846;DHT22;2949;50.778;7.094;2023-07-29T12:37:10;25.00;99.90
5846;DHT22;2949;50.778;7.094;2023-07-29T12:39:40;24.90;99.90
5846;DHT22;2949;50.778;7.094;2023-07-29T12:42:06;25.00;99.90
5846;DHT22;2949;50.778;7.094;2023-07-29T12:44:34;25.20;99.90
5846;DHT22;2949;50.778;7.094;2023-07-29T12:47:01;25.20;99.90
5846;DHT22;2949;50.778;7.094;2023-07-29T12:49:28;24.80;99.90
5846;DHT22;2949;50.778;7.094;2023-07-29T12:51:55;24.70;99.90
5846;DHT22;2949;50.778;7.094;2023-07-29T12:54:20;24.90;99.90
5846;DHT22;2949;50.778;7.094;2023-07-29T12:56:46;25.00;99.90
5846;DHT22;2949;50.778;7.094;2023-07-29T12:59:11;24.90;99.90
5846;DHT22;2949;50.778;7.094;2023-07-29T13:01:37;24.60;99.90
5846;DHT22;2949;50.778;7.094;2023-07-29T13:04:03;24.60;99.90
5846;DHT22;2949;50.778;7.094;2023-07-29T13:06:28;24.50;99.90
5846;DHT22;2949;50.778;7.094;2023-07-29T13:08:54;24.30;99.90
5846;DHT22;2949;50.778;7.094;2023-07-29T13:11:19;24.10;99.90
5846;DHT22;2949;50.778;7.094;2023-07-29T13:13:45;24.00;99.90
5846;DHT22;2949;50.778;7.094;2023-07-29T13:16:11;23.90;99.90
5846;DHT22;2949;50.778;7.094;2023-07-29T13:18:36;23.90;99.90
5846;DHT22;2949;50.778;7.094;2023-07-29T13:21:02;23.90;99.90
5846;DHT22;2949;50.778;7.094;2023-07-29T13:23:27;24.00;99.90
5846;DHT22;2949;50.778;7.094;2023-07-29T13:25:55;24.00;99.90
5846;DHT22;2949;50.778;7.094;2023-07-29T13:28:21;23.90;99.90
5846;DHT22;2949;50.778;7.094;2023-07-29T13:30:46;23.90;99.90
5846;DHT22;2949;50.778;7.094;2023-07-29T13:33:12;23.70;99.90
5846;DHT22;2949;50.778;7.094;2023-07-29T13:35:37;23.50;99.90
5846;DHT22;2949;50.778;7.094;2023-07-29T13:38:03;23.20;99.90
5846;DHT22;2949;50.778;7.094;2023-07-29T13:40:29;22.90;99.90
5846;DHT22;2949;50.778;7.094;2023-07-29T13:42:54;22.70;99.90
5846;DHT22;2949;50.778;7.094;2023-07-29T13:45:20;22.60;99.90
5846;DHT22;2949;50.778;7.094;2023-07-29T13:47:46;22.50;99.90
5846;DHT22;2949;50.778;7.094;2023-07-29T13:50:11;22.40;99.90
5846;DHT22;2949;50.778;7.094;2023-07-29T13:52:37;22.30;99.90
5846;DHT22;2949;50.778;7.094;2023-07-29T13:55:06;22.40;99.90
5846;DHT22;2949;50.778;7.094;2023-07-29T13:57:32;22.40;99.90
5846;DHT22;2949;50.778;7.094;2023-07-29T13:59:58;22.50;99.90
5846;DHT22;2949;50.778;7.094;2023-07-29T14:02:23;22.60;99.90
5846;DHT22;2949;50.778;7.094;2023-07-29T14:04:51;22.60;99.90
5846;DHT22;2949;50.778;7.094;2023-07-29T14:07:17;22.70;99.90
5846;DHT22;2949;50.778;7.094;2023-07-29T14:09:42;22.60;99.90
5846;DHT22;2949;50.778;7.094;2023-07-29T14:12:08;22.60;99.90
5846;DHT22;2949;50.778;7.094;2023-07-29T14:14:38;22.50;99.90
5846;DHT22;2949;50.778;7.094;2023-07-29T14:17:03;22.40;99.90
5846;DHT22;2949;50.778;7.094;2023-07-29T14:19:29;22.30;99.90
5846;DHT22;2949;50.778;7.094;2023-07-29T14:21:55;22.30;99.90
5846;DHT22;2949;50.778;7.094;2023-07-29T14:24:20;22.20;99.90
5846;DHT22;2949;50.778;7.094;2023-07-29T14:26:48;22.00;99.90
5846;DHT22;2949;50.778;7.094;2023-07-29T14:29:13;21.90;99.90
5846;DHT22;2949;50.778;7.094;2023-07-29T14:31:39;21.90;99.90
5846;DHT22;2949;50.778;7.094;2023-07-29T14:34:04;21.90;99.90
5846;DHT22;2949;50.778;7.094;2023-07-29T14:36:30;21.90;99.90
5846;DHT22;2949;50.778;7.094;2023-07-29T14:38:55;21.90;99.90
5846;DHT22;2949;50.778;7.094;2023-07-29T14:41:21;21.90;99.90
5846;DHT22;2949;50.778;7.094;2023-07-29T14:43:46;22.00;99.90
5846;DHT22;2949;50.778;7.094;2023-07-29T14:46:12;22.00;99.90
5846;DHT22;2949;50.778;7.094;2023-07-29T14:48:37;21.90;99.90
5846;DHT22;2949;50.778;7.094;2023-07-29T14:51:03;21.70;99.90
5846;DHT22;2949;50.778;7.094;2023-07-29T14:53:28;21.60;99.90
5846;DHT22;2949;50.778;7.094;2023-07-29T14:55:54;21.60;99.90
5846;DHT22;2949;50.778;7.094;2023-07-29T14:58:19;21.70;99.90
5846;DHT22;2949;50.778;7.094;2023-07-29T15:00:45;21.60;99.90
5846;DHT22;2949;50.778;7.094;2023-07-29T15:03:10;21.70;99.90
5846;DHT22;2949;50.778;7.094;2023-07-29T15:05:36;21.60;99.90
5846;DHT22;2949;50.778;7.094;2023-07-29T15:08:01;21.70;99.90
5846;DHT22;2949;50.778;7.094;2023-07-29T15:10:27;21.70;99.90
5846;DHT22;2949;50.778;7.094;2023-07-29T15:12:53;21.60;99.90
5846;DHT22;2949;50.778;7.094;2023-07-29T15:15:18;21.60;99.90
5846;DHT22;2949;50.778;7.094;2023-07-29T15:17:44;21.60;99.90
5846;DHT22;2949;50.778;7.094;2023-07-29T15:20:10;21.60;99.90
5846;DHT22;2949;50.778;7.094;2023-07-29T15:22:36;21.70;99.90
5846;DHT22;2949;50.778;7.094;2023-07-29T15:25:02;21.80;99.90
5846;DHT22;2949;50.778;7.094;2023-07-29T15:27:28;21.90;99.90
5846;DHT22;2949;50.778;7.094;2023-07-29T15:29:54;21.90;99.90
5846;DHT22;2949;50.778;7.094;2023-07-29T15:32:20;22.10;99.90
5846;DHT22;2949;50.778;7.094;2023-07-29T15:34:45;22.10;99.90
5846;DHT22;2949;50.778;7.094;2023-07-29T15:37:11;22.20;99.90
5846;DHT22;2949;50.778;7.094;2023-07-29T15:39:36;22.20;99.90
5846;DHT22;2949;50.778;7.094;2023-07-29T15:42:02;22.10;99.90
5846;DHT22;2949;50.778;7.094;2023-07-29T15:44:28;22.20;99.90
5846;DHT22;2949;50.778;7.094;2023-07-29T15:46:53;22.00;99.90
5846;DHT22;2949;50.778;7.094;2023-07-29T15:49:21;21.80;99.90
5846;DHT22;2949;50.778;7.094;2023-07-29T15:51:46;21.60;99.90
5846;DHT22;2949;50.778;7.094;2023-07-29T15:54:12;21.40;99.90
5846;DHT22;2949;50.778;7.094;2023-07-29T15:56:38;21.30;99.90
5846;DHT22;2949;50.778;7.094;2023-07-29T15:59:04;21.10;99.90
5846;DHT22;2949;50.778;7.094;2023-07-29T16:01:29;20.90;99.90
5846;DHT22;2949;50.778;7.094;2023-07-29T16:03:55;20.80;99.90